sensor_id;sensor_type;location;lat;lon;timestamp;P1;durP1;ratioP1;P2;durP2;ratioP2
9643;SDS011;4860;50.900;4.720;2024-01-25T00:01:22;0.20;;;0.20;;
9643;SDS011;4860;50.900;4.720;2024-01-25T00:03:48;0.20;;;0.20;;
9643;SDS011;4860;50.900;4.720;2024-01-25T00:06:14;0.20;;;0.20;;
9643;SDS011;4860;50.900;4.720;2024-01-25T00:08:40;0.22;;;0.22;;
9643;SDS011;4860;50.900;4.720;2024-01-25T00:11:06;0.20;;;0.20;;
9643;SDS011;4860;50.900;4.720;2024-01-25T00:13:34;0.20;;;0.20;;
9643;SDS011;4860;50.900;4.720;2024-01-25T00:16:01;0.20;;;0.20;;
9643;SDS011;4860;50.900;4.720;2024-01-25T00:18:27;0.20;;;0.20;;
9643;SDS011;4860;50.900;4.720;2024-01-25T00:20:55;0.20;;;0.20;;
9643;SDS011;4860;50.900;4.720;2024-01-25T00:23:21;0.20;;;0.20;;
9643;SDS011;4860;50.900;4.720;2024-01-25T00:25:47;0.17;;;0.17;;
9643;SDS011;4860;50.900;4.720;2024-01-25T00:28:13;0.20;;;0.20;;
9643;SDS011;4860;50.900;4.720;2024-01-25T00:30:39;0.20;;;0.20;;
9643;SDS011;4860;50.900;4.720;2024-01-25T00:33:05;0.30;;;0.30;;
9643;SDS011;4860;50.900;4.720;2024-01-25T00:35:32;0.30;;;0.30;;
9643;SDS011;4860;50.900;4.720;2024-01-25T00:37:58;0.20;;;0.20;;
9643;SDS011;4860;50.900;4.720;2024-01-25T00:40:25;0.30;;;0.30;;
9643;SDS011;4860;50.900;4.720;2024-01-25T00:42:51;0.20;;;0.20;;
9643;SDS011;4860;50.900;4.720;2024-01-25T00:45:21;0.20;;;0.20;;
9643;SDS011;4860;50.900;4.720;2024-01-25T00:47:48;0.20;;;0.20;;
9643;SDS011;4860;50.900;4.720;2024-01-25T00:50:14;0.22;;;0.22;;
9643;SDS011;4860;50.900;4.720;2024-01-25T00:52:44;0.20;;;0.20;;
9643;SDS011;4860;50.900;4.720;2024-01-25T00:55:11;0.15;;;0.15;;
9643;SDS011;4860;50.900;4.720;2024-01-25T00:57:37;0.20;;;0.20;;
9643;SDS011;4860;50.900;4.720;2024-01-25T01:00:04;0.20;;;0.20;;
9643;SDS011;4860;50.900;4.720;2024-01-25T01:02:31;0.25;;;0.25;;
9643;SDS011;4860;50.900;4.720;2024-01-25T01:05:01;0.20;;;0.20;;
9643;SDS011;4860;50.900;4.720;2024-01-25T01:07:27;0.20;;;0.20;;
9643;SDS011;4860;50.900;4.720;2024-01-25T01:09:53;0.30;;;0.30;;
9643;SDS011;4860;50.900;4.720;2024-01-25T01:12:19;0.30;;;0.30;;
9643;SDS011;4860;50.900;4.720;2024-01-25T01:14:45;0.30;;;0.30;;
9643;SDS011;4860;50.900;4.720;2024-01-25T01:17:11;0.30;;;0.30;;
9643;SDS011;4860;50.900;4.720;2024-01-25T01:19:37;0.30;;;0.30;;
9643;SDS011;4860;50.900;4.720;2024-01-25T01:22:04;0.20;;;0.20;;
9643;SDS011;4860;50.900;4.720;2024-01-25T01:24:30;0.30;;;0.30;;
9643;SDS011;4860;50.900;4.720;2024-01-25T01:26:56;0.28;;;0.28;;
9643;SDS011;4860;50.900;4.720;2024-01-25T01:29:22;0.20;;;0.20;;
9643;SDS011;4860;50.900;4.720;2024-01-25T01:31:48;0.30;;;0.30;;
9643;SDS011;4860;50.900;4.720;2024-01-25T01:34:14;0.22;;;0.22;;
9643;SDS011;4860;50.900;4.720;2024-01-25T01:36:42;0.20;;;0.20;;
9643;SDS011;4860;50.900;4.720;2024-01-25T01:39:08;0.20;;;0.20;;
9643;SDS011;4860;50.900;4.720;2024-01-25T01:41:35;0.20;;;0.20;;
9643;SDS011;4860;50.900;4.720;2024-01-25T01:44:01;0.30;;;0.30;;
9643;SDS011;4860;50.900;4.720;2024-01-25T01:46:36;0.20;;;0.20;;
9643;SDS011;4860;50.900;4.720;2024-01-25T01:49:05;0.20;;;0.20;;
9643;SDS011;4860;50.900;4.720;2024-01-25T01:51:32;0.30;;;0.30;;
9643;SDS011;4860;50.900;4.720;2024-01-25T01:53:59;0.25;;;0.25;;
9643;SDS011;4860;50.900;4.720;2024-01-25T01:56:26;0.30;;;0.30;;
9643;SDS011;4860;50.900;4.720;2024-01-25T01:58:54;0.20;;;0.20;;
9643;SDS011;4860;50.900;4.720;2024-01-25T02:01:21;0.20;;;0.20;;
9643;SDS011;4860;50.900;4.720;2024-01-25T02:03:48;0.20;;;0.20;;
9643;SDS011;4860;50.900;4.720;2024-01-25T02:06:14;0.30;;;0.30;;
9643;SDS011;4860;50.900;4.720;2024-01-25T02:08:40;0.30;;;0.30;;
9643;SDS011;4860;50.900;4.720;2024-01-25T02:11:06;0.28;;;0.28;;
9643;SDS011;4860;50.900;4.720;2024-01-25T02:13:34;0.32;;;0.32;;
9643;SDS011;4860;50.900;4.720;2024-01-25T02:16:00;0.22;;;0.22;;
9643;SDS011;4860;50.900;4.720;2024-01-25T02:18:26;0.30;;;0.30;;
9643;SDS011;4860;50.900;4.720;2024-01-25T02:20:52;0.30;;;0.30;;
9643;SDS011;4860;50.900;4.720;2024-01-25T02:23:18;0.30;;;0.30;;
9643;SDS011;4860;50.900;4.720;2024-01-25T02:25:44;0.30;;;0.30;;
9643;SDS011;4860;50.900;4.720;2024-01-25T02:28:11;0.30;;;0.30;;
9643;SDS011;4860;50.900;4.720;2024-01-25T02:30:37;0.30;;;0.30;;
9643;SDS011;4860;50.900;4.720;2024-01-25T02:33:03;0.30;;;0.30;;
9643;SDS011;4860;50.900;4.720;2024-01-25T02:35:29;0.20;;;0.20;;
9643;SDS011;4860;50.900;4.720;2024-01-25T02:37:55;0.25;;;0.25;;
9643;SDS011;4860;50.900;4.720;2024-01-25T02:40:21;0.30;;;0.30;;
9643;SDS011;4860;50.900;4.720;2024-01-25T02:42:48;0.30;;;0.30;;
9643;SDS011;4860;50.900;4.720;2024-01-25T02:45:14;0.30;;;0.30;;
9643;SDS011;4860;50.900;4.720;2024-01-25T02:47:40;0.20;;;0.20;;
9643;SDS011;4860;50.900;4.720;2024-01-25T02:50:06;0.30;;;0.30;;
9643;SDS011;4860;50.900;4.720;2024-01-25T02:52:33;0.30;;;0.30;;
9643;SDS011;4860;50.900;4.720;2024-01-25T02:54:59;0.30;;;0.30;;
9643;SDS011;4860;50.900;4.720;2024-01-25T02:57:25;0.30;;;0.30;;
9643;SDS011;4860;50.900;4.720;2024-01-25T02:59:51;0.20;;;0.20;;
9643;SDS011;4860;50.900;4.720;2024-01-25T03:02:17;0.30;;;0.30;;
9643;SDS011;4860;50.900;4.720;2024-01-25T03:04:44;0.30;;;0.30;;
9643;SDS011;4860;50.900;4.720;2024-01-25T03:07:11;0.30;;;0.30;;
9643;SDS011;4860;50.900;4.720;2024-01-25T03:09:37;0.30;;;0.30;;
9643;SDS011;4860;50.900;4.720;2024-01-25T03:12:03;0.30;;;0.30;;
9643;SDS011;4860;50.900;4.720;2024-01-25T03:14:29;0.30;;;0.30;;
9643;SDS011;4860;50.900;4.720;2024-01-25T03:16:55;0.30;;;0.30;;
9643;SDS011;4860;50.900;4.720;2024-01-25T03:19:25;0.20;;;0.20;;
9643;SDS011;4860;50.900;4.720;2024-01-25T03:21:51;0.30;;;0.30;;
9643;SDS011;4860;50.900;4.720;2024-01-25T03:24:17;0.22;;;0.22;;
9643;SDS011;4860;50.900;4.720;2024-01-25T03:26:43;0.30;;;0.30;;
9643;SDS011;4860;50.900;4.720;2024-01-25T03:29:10;0.30;;;0.30;;
9643;SDS011;4860;50.900;4.720;2024-01-25T03:31:36;0.30;;;0.30;;
9643;SDS011;4860;50.900;4.720;2024-01-25T03:34:02;0.38;;;0.38;;
9643;SDS011;4860;50.900;4.720;2024-01-25T03:36:30;0.30;;;0.30;;
9643;SDS011;4860;50.900;4.720;2024-01-25T03:38:56;0.30;;;0.30;;
9643;SDS011;4860;50.900;4.720;2024-01-25T03:41:23;0.30;;;0.30;;
9643;SDS011;4860;50.900;4.720;2024-01-25T03:43:49;0.30;;;0.30;;
9643;SDS011;4860;50.900;4.720;2024-01-25T03:46:15;0.30;;;0.30;;
9643;SDS011;4860;50.900;4.720;2024-01-25T03:48:41;0.30;;;0.30;;
9643;SDS011;4860;50.900;4.720;2024-01-25T03:51:08;0.40;;;0.40;;
9643;SDS011;4860;50.900;4.720;2024-01-25T03:53:34;0.30;;;0.30;;
9643;SDS011;4860;50.900;4.720;2024-01-25T03:56:00;0.30;;;0.30;;
9643;SDS011;4860;50.900;4.720;2024-01-25T03:58:27;0.30;;;0.30;;
9643;SDS011;4860;50.900;4.720;2024-01-25T04:00:53;0.30;;;0.30;;
9643;SDS011;4860;50.900;4.720;2024-01-25T04:03:19;0.30;;;0.30;;
9643;SDS011;4860;50.900;4.720;2024-01-25T04:05:46;0.30;;;0.30;;
9643;SDS011;4860;50.900;4.720;2024-01-25T04:08:12;0.30;;;0.30;;
9643;SDS011;4860;50.900;4.720;2024-01-25T04:10:38;0.30;;;0.30;;
9643;SDS011;4860;50.900;4.720;2024-01-25T04:13:04;0.33;;;0.33;;
9643;SDS011;4860;50.900;4.720;2024-01-25T04:15:31;0.40;;;0.40;;
9643;SDS011;4860;50.900;4.720;2024-01-25T04:17:57;0.40;;;0.40;;
9643;SDS011;4860;50.900;4.720;2024-01-25T04:20:23;0.40;;;0.40;;
9643;SDS011;4860;50.900;4.720;2024-01-25T04:22:50;0.30;;;0.30;;
9643;SDS011;4860;50.900;4.720;2024-01-25T04:25:16;0.30;;;0.30;;
9643;SDS011;4860;50.900;4.720;2024-01-25T04:27:42;0.40;;;0.40;;
9643;SDS011;4860;50.900;4.720;2024-01-25T04:30:08;0.30;;;0.30;;
9643;SDS011;4860;50.900;4.720;2024-01-25T04:32:35;0.30;;;0.30;;
9643;SDS011;4860;50.900;4.720;2024-01-25T04:35:01;0.30;;;0.30;;
9643;SDS011;4860;50.900;4.720;2024-01-25T04:37:27;0.40;;;0.40;;
9643;SDS011;4860;50.900;4.720;2024-01-25T04:39:53;0.30;;;0.30;;
9643;SDS011;4860;50.900;4.720;2024-01-25T04:42:20;0.40;;;0.40;;
9643;SDS011;4860;50.900;4.720;2024-01-25T04:44:46;0.37;;;0.37;;
9643;SDS011;4860;50.900;4.720;2024-01-25T04:47:12;0.30;;;0.30;;
9643;SDS011;4860;50.900;4.720;2024-01-25T04:49:39;0.40;;;0.40;;
9643;SDS011;4860;50.900;4.720;2024-01-25T04:52:06;0.30;;;0.30;;
9643;SDS011;4860;50.900;4.720;2024-01-25T04:54:32;0.30;;;0.30;;
9643;SDS011;4860;50.900;4.720;2024-01-25T04:56:58;0.40;;;0.40;;
9643;SDS011;4860;50.900;4.720;2024-01-25T04:59:24;0.40;;;0.40;;
9643;SDS011;4860;50.900;4.720;2024-01-25T05:01:51;0.37;;;0.37;;
9643;SDS011;4860;50.900;4.720;2024-01-25T05:04:19;0.40;;;0.40;;
9643;SDS011;4860;50.900;4.720;2024-01-25T05:06:45;0.50;;;0.50;;
9643;SDS011;4860;50.900;4.720;2024-01-25T05:09:11;0.40;;;0.40;;
9643;SDS011;4860;50.900;4.720;2024-01-25T05:11:39;0.40;;;0.40;;
9643;SDS011;4860;50.900;4.720;2024-01-25T05:14:05;0.30;;;0.30;;
9643;SDS011;4860;50.900;4.720;2024-01-25T05:16:31;0.40;;;0.40;;
9643;SDS011;4860;50.900;4.720;2024-01-25T05:18:58;0.47;;;0.47;;
9643;SDS011;4860;50.900;4.720;2024-01-25T05:21:25;0.40;;;0.40;;
9643;SDS011;4860;50.900;4.720;2024-01-25T05:23:51;0.40;;;0.40;;
9643;SDS011;4860;50.900;4.720;2024-01-25T05:26:17;0.40;;;0.40;;
9643;SDS011;4860;50.900;4.720;2024-01-25T05:28:44;0.40;;;0.40;;
9643;SDS011;4860;50.900;4.720;2024-01-25T05:31:10;0.30;;;0.30;;
9643;SDS011;4860;50.900;4.720;2024-01-25T05:33:40;0.40;;;0.40;;
9643;SDS011;4860;50.900;4.720;2024-01-25T05:36:06;0.40;;;0.40;;
9643;SDS011;4860;50.900;4.720;2024-01-25T05:38:32;0.40;;;0.40;;
9643;SDS011;4860;50.900;4.720;2024-01-25T05:40:58;0.40;;;0.40;;
9643;SDS011;4860;50.900;4.720;2024-01-25T05:43:25;0.40;;;0.40;;
9643;SDS011;4860;50.900;4.720;2024-01-25T05:45:51;0.40;;;0.40;;
9643;SDS011;4860;50.900;4.720;2024-01-25T05:48:17;0.30;;;0.30;;
9643;SDS011;4860;50.900;4.720;2024-01-25T05:50:43;0.30;;;0.30;;
9643;SDS011;4860;50.900;4.720;2024-01-25T05:53:09;0.40;;;0.40;;
9643;SDS011;4860;50.900;4.720;2024-01-25T05:55:35;0.50;;;0.50;;
9643;SDS011;4860;50.900;4.720;2024-01-25T05:58:03;0.40;;;0.40;;
9643;SDS011;4860;50.900;4.720;2024-01-25T06:00:29;0.33;;;0.33;;
9643;SDS011;4860;50.900;4.720;2024-01-25T06:02:55;0.40;;;0.40;;
9643;SDS011;4860;50.900;4.720;2024-01-25T06:05:21;0.40;;;0.40;;
9643;SDS011;4860;50.900;4.720;2024-01-25T06:07:47;0.40;;;0.40;;
9643;SDS011;4860;50.900;4.720;2024-01-25T06:10:15;0.30;;;0.30;;
9643;SDS011;4860;50.900;4.720;2024-01-25T06:12:41;0.33;;;0.33;;
9643;SDS011;4860;50.900;4.720;2024-01-25T06:15:07;0.40;;;0.40;;
9643;SDS011;4860;50.900;4.720;2024-01-25T06:17:33;0.40;;;0.40;;
9643;SDS011;4860;50.900;4.720;2024-01-25T06:20:00;0.40;;;0.40;;
9643;SDS011;4860;50.900;4.720;2024-01-25T06:22:26;0.40;;;0.40;;
9643;SDS011;4860;50.900;4.720;2024-01-25T06:24:52;0.30;;;0.30;;
9643;SDS011;4860;50.900;4.720;2024-01-25T06:27:18;0.40;;;0.40;;
9643;SDS011;4860;50.900;4.720;2024-01-25T06:29:44;0.40;;;0.40;;
9643;SDS011;4860;50.900;4.720;2024-01-25T06:32:10;0.30;;;0.30;;
9643;SDS011;4860;50.900;4.720;2024-01-25T06:34:36;0.40;;;0.40;;
9643;SDS011;4860;50.900;4.720;2024-01-25T06:37:03;0.40;;;0.40;;
9643;SDS011;4860;50.900;4.720;2024-01-25T06:39:29;0.30;;;0.30;;
9643;SDS011;4860;50.900;4.720;2024-01-25T06:41:55;0.40;;;0.40;;
9643;SDS011;4860;50.900;4.720;2024-01-25T06:44:21;0.40;;;0.40;;
9643;SDS011;4860;50.900;4.720;2024-01-25T06:46:47;0.40;;;0.40;;
9643;SDS011;4860;50.900;4.720;2024-01-25T06:49:13;0.30;;;0.30;;
9643;SDS011;4860;50.900;4.720;2024-01-25T06:51:39;0.40;;;0.40;;
9643;SDS011;4860;50.900;4.720;2024-01-25T06:54:05;0.33;;;0.33;;
9643;SDS011;4860;50.900;4.720;2024-01-25T06:56:31;0.30;;;0.30;;
9643;SDS011;4860;50.900;4.720;2024-01-25T06:58:59;0.33;;;0.33;;
9643;SDS011;4860;50.900;4.720;2024-01-25T07:01:25;0.30;;;0.30;;
9643;SDS011;4860;50.900;4.720;2024-01-25T07:03:53;0.40;;;0.40;;
9643;SDS011;4860;50.900;4.720;2024-01-25T07:06:19;0.30;;;0.30;;
9643;SDS011;4860;50.900;4.720;2024-01-25T07:08:45;0.30;;;0.30;;
9643;SDS011;4860;50.900;4.720;2024-01-25T07:11:12;0.30;;;0.30;;
9643;SDS011;4860;50.900;4.720;2024-01-25T07:13:38;0.23;;;0.23;;
9643;SDS011;4860;50.900;4.720;2024-01-25T07:16:04;0.30;;;0.30;;
9643;SDS011;4860;50.900;4.720;2024-01-25T07:18:30;0.30;;;0.30;;
9643;SDS011;4860;50.900;4.720;2024-01-25T07:20:56;0.30;;;0.30;;
9643;SDS011;4860;50.900;4.720;2024-01-25T07:23:23;0.40;;;0.40;;
9643;SDS011;4860;50.900;4.720;2024-01-25T07:25:49;0.30;;;0.30;;
9643;SDS011;4860;50.900;4.720;2024-01-25T07:28:18;0.40;;;0.40;;
9643;SDS011;4860;50.900;4.720;2024-01-25T07:30:46;0.30;;;0.30;;
9643;SDS011;4860;50.900;4.720;2024-01-25T07:33:12;0.20;;;0.20;;
9643;SDS011;4860;50.900;4.720;2024-01-25T07:35:38;0.30;;;0.30;;
9643;SDS011;4860;50.900;4.720;2024-01-25T07:38:17;0.30;;;0.30;;
9643;SDS011;4860;50.900;4.720;2024-01-25T07:40:43;0.30;;;0.30;;
9643;SDS011;4860;50.900;4.720;2024-01-25T07:43:09;0.30;;;0.30;;
9643;SDS011;4860;50.900;4.720;2024-01-25T07:45:36;0.30;;;0.30;;
9643;SDS011;4860;50.900;4.720;2024-01-25T07:48:03;0.30;;;0.30;;
9643;SDS011;4860;50.900;4.720;2024-01-25T07:50:29;0.30;;;0.30;;
9643;SDS011;4860;50.900;4.720;2024-01-25T07:52:55;0.30;;;0.30;;
9643;SDS011;4860;50.900;4.720;2024-01-25T07:55:21;0.25;;;0.25;;
9643;SDS011;4860;50.900;4.720;2024-01-25T07:57:47;0.20;;;0.20;;
9643;SDS011;4860;50.900;4.720;2024-01-25T08:00:13;0.30;;;0.30;;
9643;SDS011;4860;50.900;4.720;2024-01-25T08:02:40;0.30;;;0.30;;
9643;SDS011;4860;50.900;4.720;2024-01-25T08:05:06;0.30;;;0.30;;
9643;SDS011;4860;50.900;4.720;2024-01-25T08:07:32;0.30;;;0.30;;
9643;SDS011;4860;50.900;4.720;2024-01-25T08:09:59;0.30;;;0.30;;
9643;SDS011;4860;50.900;4.720;2024-01-25T08:12:25;0.30;;;0.30;;
9643;SDS011;4860;50.900;4.720;2024-01-25T08:14:51;0.27;;;0.27;;
9643;SDS011;4860;50.900;4.720;2024-01-25T08:17:18;0.30;;;0.30;;
9643;SDS011;4860;50.900;4.720;2024-01-25T08:19:44;0.30;;;0.30;;
9643;SDS011;4860;50.900;4.720;2024-01-25T08:22:11;0.30;;;0.30;;
9643;SDS011;4860;50.900;4.720;2024-01-25T08:24:38;0.20;;;0.20;;
9643;SDS011;4860;50.900;4.720;2024-01-25T08:27:04;0.30;;;0.30;;
9643;SDS011;4860;50.900;4.720;2024-01-25T08:29:32;0.30;;;0.30;;
9643;SDS011;4860;50.900;4.720;2024-01-25T08:31:58;0.30;;;0.30;;
9643;SDS011;4860;50.900;4.720;2024-01-25T08:34:24;0.30;;;0.30;;
9643;SDS011;4860;50.900;4.720;2024-01-25T08:36:51;0.30;;;0.30;;
9643;SDS011;4860;50.900;4.720;2024-01-25T08:39:17;0.30;;;0.30;;
9643;SDS011;4860;50.900;4.720;2024-01-25T08:41:43;0.30;;;0.30;;
9643;SDS011;4860;50.900;4.720;2024-01-25T08:44:10;0.30;;;0.30;;
9643;SDS011;4860;50.900;4.720;2024-01-25T08:46:36;0.30;;;0.30;;
9643;SDS011;4860;50.900;4.720;2024-01-25T08:49:03;0.28;;;0.28;;
9643;SDS011;4860;50.900;4.720;2024-01-25T08:51:33;0.30;;;0.30;;
9643;SDS011;4860;50.900;4.720;2024-01-25T08:54:00;0.20;;;0.20;;
9643;SDS011;4860;50.900;4.720;2024-01-25T08:56:26;0.22;;;0.22;;
9643;SDS011;4860;50.900;4.720;2024-01-25T08:58:52;0.25;;;0.25;;
9643;SDS011;4860;50.900;4.720;2024-01-25T09:01:18;0.20;;;0.20;;
9643;SDS011;4860;50.900;4.720;2024-01-25T09:03:44;0.20;;;0.20;;
9643;SDS011;4860;50.900;4.720;2024-01-25T09:06:11;0.20;;;0.20;;
9643;SDS011;4860;50.900;4.720;2024-01-25T09:08:37;0.20;;;0.20;;
9643;SDS011;4860;50.900;4.720;2024-01-25T09:11:03;0.28;;;0.28;;
9643;SDS011;4860;50.900;4.720;2024-01-25T09:13:30;0.30;;;0.30;;
9643;SDS011;4860;50.900;4.720;2024-01-25T09:15:57;0.20;;;0.20;;
9643;SDS011;4860;50.900;4.720;2024-01-25T09:18:23;0.20;;;0.20;;
9643;SDS011;4860;50.900;4.720;2024-01-25T09:20:50;0.30;;;0.30;;
9643;SDS011;4860;50.900;4.720;2024-01-25T09:23:16;0.25;;;0.25;;
9643;SDS011;4860;50.900;4.720;2024-01-25T09:25:46;0.30;;;0.30;;
9643;SDS011;4860;50.900;4.720;2024-01-25T09:28:12;0.30;;;0.30;;
9643;SDS011;4860;50.900;4.720;2024-01-25T09:30:38;0.30;;;0.30;;
9643;SDS011;4860;50.900;4.720;2024-01-25T09:33:05;0.30;;;0.30;;
9643;SDS011;4860;50.900;4.720;2024-01-25T09:35:31;0.20;;;0.20;;
9643;SDS011;4860;50.900;4.720;2024-01-25T09:37:57;0.20;;;0.20;;
9643;SDS011;4860;50.900;4.720;2024-01-25T09:40:23;0.20;;;0.20;;
9643;SDS011;4860;50.900;4.720;2024-01-25T09:42:49;0.20;;;0.20;;
9643;SDS011;4860;50.900;4.720;2024-01-25T09:45:18;0.20;;;0.20;;
9643;SDS011;4860;50.900;4.720;2024-01-25T09:47:45;0.30;;;0.30;;
9643;SDS011;4860;50.900;4.720;2024-01-25T09:50:11;0.25;;;0.25;;
9643;SDS011;4860;50.900;4.720;2024-01-25T09:52:38;0.30;;;0.30;;
9643;SDS011;4860;50.900;4.720;2024-01-25T09:55:06;0.28;;;0.28;;
9643;SDS011;4860;50.900;4.720;2024-01-25T09:57:34;0.30;;;0.30;;
9643;SDS011;4860;50.900;4.720;2024-01-25T10:00:02;0.20;;;0.20;;
9643;SDS011;4860;50.900;4.720;2024-01-25T10:02:28;0.20;;;0.20;;
9643;SDS011;4860;50.900;4.720;2024-01-25T10:04:54;0.13;;;0.13;;
9643;SDS011;4860;50.900;4.720;2024-01-25T10:10:02;0.25;;;0.25;;
9643;SDS011;4860;50.900;4.720;2024-01-25T10:12:30;0.30;;;0.30;;
9643;SDS011;4860;50.900;4.720;2024-01-25T10:14:56;0.25;;;0.25;;
9643;SDS011;4860;50.900;4.720;2024-01-25T10:17:22;0.25;;;0.25;;
9643;SDS011;4860;50.900;4.720;2024-01-25T10:19:49;0.20;;;0.20;;
9643;SDS011;4860;50.900;4.720;2024-01-25T10:22:15;0.20;;;0.20;;
9643;SDS011;4860;50.900;4.720;2024-01-25T10:24:41;0.20;;;0.20;;
9643;SDS011;4860;50.900;4.720;2024-01-25T10:27:08;0.20;;;0.20;;
9643;SDS011;4860;50.900;4.720;2024-01-25T10:29:34;0.20;;;0.20;;
9643;SDS011;4860;50.900;4.720;2024-01-25T10:32:02;0.20;;;0.20;;
9643;SDS011;4860;50.900;4.720;2024-01-25T10:34:28;0.20;;;0.20;;
9643;SDS011;4860;50.900;4.720;2024-01-25T10:36:55;0.22;;;0.22;;
9643;SDS011;4860;50.900;4.720;2024-01-25T10:39:21;0.28;;;0.28;;
9643;SDS011;4860;50.900;4.720;2024-01-25T10:41:47;0.30;;;0.30;;
9643;SDS011;4860;50.900;4.720;2024-01-25T10:44:16;0.30;;;0.30;;
9643;SDS011;4860;50.900;4.720;2024-01-25T10:46:46;0.30;;;0.30;;
9643;SDS011;4860;50.900;4.720;2024-01-25T10:49:13;0.20;;;0.20;;
9643;SDS011;4860;50.900;4.720;2024-01-25T10:51:39;0.20;;;0.20;;
9643;SDS011;4860;50.900;4.720;2024-01-25T10:54:07;0.20;;;0.20;;
9643;SDS011;4860;50.900;4.720;2024-01-25T10:56:37;0.20;;;0.20;;
9643;SDS011;4860;50.900;4.720;2024-01-25T10:59:03;0.20;;;0.20;;
9643;SDS011;4860;50.900;4.720;2024-01-25T11:01:31;0.15;;;0.15;;
9643;SDS011;4860;50.900;4.720;2024-01-25T11:03:59;0.10;;;0.10;;
9643;SDS011;4860;50.900;4.720;2024-01-25T11:06:26;0.20;;;0.20;;
9643;SDS011;4860;50.900;4.720;2024-01-25T11:09:03;0.20;;;0.20;;
9643;SDS011;4860;50.900;4.720;2024-01-25T11:11:30;0.20;;;0.20;;
9643;SDS011;4860;50.900;4.720;2024-01-25T11:13:58;0.20;;;0.20;;
9643;SDS011;4860;50.900;4.720;2024-01-25T11:16:31;0.20;;;0.20;;
9643;SDS011;4860;50.900;4.720;2024-01-25T11:19:00;0.20;;;0.20;;
9643;SDS011;4860;50.900;4.720;2024-01-25T11:24:14;0.20;;;0.20;;
9643;SDS011;4860;50.900;4.720;2024-01-25T11:26:44;0.20;;;0.20;;
9643;SDS011;4860;50.900;4.720;2024-01-25T11:29:12;0.20;;;0.20;;
9643;SDS011;4860;50.900;4.720;2024-01-25T11:31:41;0.10;;;0.10;;
9643;SDS011;4860;50.900;4.720;2024-01-25T11:34:09;0.20;;;0.20;;
9643;SDS011;4860;50.900;4.720;2024-01-25T11:36:36;0.20;;;0.20;;
9643;SDS011;4860;50.900;4.720;2024-01-25T11:39:02;0.20;;;0.20;;
9643;SDS011;4860;50.900;4.720;2024-01-25T11:41:30;0.20;;;0.20;;
9643;SDS011;4860;50.900;4.720;2024-01-25T11:43:56;0.20;;;0.20;;
9643;SDS011;4860;50.900;4.720;2024-01-25T11:46:22;0.20;;;0.20;;
9643;SDS011;4860;50.900;4.720;2024-01-25T11:48:49;0.20;;;0.20;;
9643;SDS011;4860;50.900;4.720;2024-01-25T11:51:15;0.20;;;0.20;;
9643;SDS011;4860;50.900;4.720;2024-01-25T11:53:41;0.20;;;0.20;;
9643;SDS011;4860;50.900;4.720;2024-01-25T11:56:09;0.20;;;0.20;;
9643;SDS011;4860;50.900;4.720;2024-01-25T11:58:39;0.30;;;0.30;;
9643;SDS011;4860;50.900;4.720;2024-01-25T12:01:06;0.20;;;0.20;;
9643;SDS011;4860;50.900;4.720;2024-01-25T12:03:34;0.20;;;0.20;;
9643;SDS011;4860;50.900;4.720;2024-01-25T12:06:04;0.20;;;0.20;;
9643;SDS011;4860;50.900;4.720;2024-01-25T12:08:31;0.20;;;0.20;;
9643;SDS011;4860;50.900;4.720;2024-01-25T12:11:08;0.20;;;0.20;;
9643;SDS011;4860;50.900;4.720;2024-01-25T12:13:41;0.10;;;0.10;;
9643;SDS011;4860;50.900;4.720;2024-01-25T12:16:11;0.20;;;0.20;;
9643;SDS011;4860;50.900;4.720;2024-01-25T12:18:38;0.20;;;0.20;;
9643;SDS011;4860;50.900;4.720;2024-01-25T12:21:04;0.20;;;0.20;;
9643;SDS011;4860;50.900;4.720;2024-01-25T12:26:01;0.20;;;0.20;;
9643;SDS011;4860;50.900;4.720;2024-01-25T12:28:28;0.20;;;0.20;;
9643;SDS011;4860;50.900;4.720;2024-01-25T12:30:54;0.20;;;0.20;;
9643;SDS011;4860;50.900;4.720;2024-01-25T12:33:20;0.20;;;0.20;;
9643;SDS011;4860;50.900;4.720;2024-01-25T12:35:47;0.10;;;0.10;;
9643;SDS011;4860;50.900;4.720;2024-01-25T12:38:13;0.10;;;0.10;;
9643;SDS011;4860;50.900;4.720;2024-01-25T12:40:40;0.20;;;0.20;;
9643;SDS011;4860;50.900;4.720;2024-01-25T12:43:07;0.10;;;0.10;;
9643;SDS011;4860;50.900;4.720;2024-01-25T12:45:33;0.20;;;0.20;;
9643;SDS011;4860;50.900;4.720;2024-01-25T12:47:59;0.20;;;0.20;;
9643;SDS011;4860;50.900;4.720;2024-01-25T12:50:27;0.17;;;0.17;;
9643;SDS011;4860;50.900;4.720;2024-01-25T12:52:54;0.20;;;0.20;;
9643;SDS011;4860;50.900;4.720;2024-01-25T12:55:20;0.15;;;0.15;;
9643;SDS011;4860;50.900;4.720;2024-01-25T12:57:46;0.10;;;0.10;;
9643;SDS011;4860;50.900;4.720;2024-01-25T13:00:12;0.15;;;0.15;;
9643;SDS011;4860;50.900;4.720;2024-01-25T13:02:38;0.17;;;0.17;;
9643;SDS011;4860;50.900;4.720;2024-01-25T13:05:05;0.20;;;0.20;;
9643;SDS011;4860;50.900;4.720;2024-01-25T13:07:31;0.20;;;0.20;;
9643;SDS011;4860;50.900;4.720;2024-01-25T13:09:57;0.13;;;0.13;;
9643;SDS011;4860;50.900;4.720;2024-01-25T13:12:23;0.20;;;0.20;;
9643;SDS011;4860;50.900;4.720;2024-01-25T13:14:49;0.17;;;0.17;;
9643;SDS011;4860;50.900;4.720;2024-01-25T13:17:15;0.20;;;0.20;;
9643;SDS011;4860;50.900;4.720;2024-01-25T13:19:42;0.20;;;0.20;;
9643;SDS011;4860;50.900;4.720;2024-01-25T13:22:08;0.20;;;0.20;;
9643;SDS011;4860;50.900;4.720;2024-01-25T13:24:34;0.10;;;0.10;;
9643;SDS011;4860;50.900;4.720;2024-01-25T13:27:00;0.20;;;0.20;;
9643;SDS011;4860;50.900;4.720;2024-01-25T13:29:26;0.13;;;0.13;;
9643;SDS011;4860;50.900;4.720;2024-01-25T13:31:52;0.10;;;0.10;;
9643;SDS011;4860;50.900;4.720;2024-01-25T13:34:18;0.10;;;0.10;;
9643;SDS011;4860;50.900;4.720;2024-01-25T13:36:44;0.20;;;0.20;;
9643;SDS011;4860;50.900;4.720;2024-01-25T13:39:10;0.17;;;0.17;;
9643;SDS011;4860;50.900;4.720;2024-01-25T13:41:36;0.17;;;0.17;;
9643;SDS011;4860;50.900;4.720;2024-01-25T13:44:03;0.20;;;0.20;;
9643;SDS011;4860;50.900;4.720;2024-01-25T13:46:29;0.20;;;0.20;;
9643;SDS011;4860;50.900;4.720;2024-01-25T13:48:55;0.17;;;0.17;;
9643;SDS011;4860;50.900;4.720;2024-01-25T13:51:21;0.20;;;0.20;;
9643;SDS011;4860;50.900;4.720;2024-01-25T13:53:47;0.15;;;0.15;;
9643;SDS011;4860;50.900;4.720;2024-01-25T13:56:14;0.20;;;0.20;;
9643;SDS011;4860;50.900;4.720;2024-01-25T13:58:41;0.20;;;0.20;;
9643;SDS011;4860;50.900;4.720;2024-01-25T14:01:07;0.10;;;0.10;;
9643;SDS011;4860;50.900;4.720;2024-01-25T14:03:33;0.20;;;0.20;;
9643;SDS011;4860;50.900;4.720;2024-01-25T14:06:00;0.10;;;0.10;;
9643;SDS011;4860;50.900;4.720;2024-01-25T14:08:29;0.20;;;0.20;;
9643;SDS011;4860;50.900;4.720;2024-01-25T14:10:56;0.10;;;0.10;;
9643;SDS011;4860;50.900;4.720;2024-01-25T14:13:22;0.10;;;0.10;;
9643;SDS011;4860;50.900;4.720;2024-01-25T14:15:48;0.17;;;0.17;;
9643;SDS011;4860;50.900;4.720;2024-01-25T14:18:14;0.10;;;0.10;;
9643;SDS011;4860;50.900;4.720;2024-01-25T14:20:41;0.10;;;0.10;;
9643;SDS011;4860;50.900;4.720;2024-01-25T14:23:07;0.15;;;0.15;;
9643;SDS011;4860;50.900;4.720;2024-01-25T14:25:33;0.10;;;0.10;;
9643;SDS011;4860;50.900;4.720;2024-01-25T14:27:59;0.20;;;0.20;;
9643;SDS011;4860;50.900;4.720;2024-01-25T14:30:25;0.13;;;0.13;;
9643;SDS011;4860;50.900;4.720;2024-01-25T14:32:51;0.10;;;0.10;;
9643;SDS011;4860;50.900;4.720;2024-01-25T14:35:18;0.10;;;0.10;;
9643;SDS011;4860;50.900;4.720;2024-01-25T14:37:44;0.20;;;0.20;;
9643;SDS011;4860;50.900;4.720;2024-01-25T14:40:10;0.20;;;0.20;;
9643;SDS011;4860;50.900;4.720;2024-01-25T14:42:36;0.20;;;0.20;;
9643;SDS011;4860;50.900;4.720;2024-01-25T14:45:04;0.10;;;0.10;;
9643;SDS011;4860;50.900;4.720;2024-01-25T14:47:30;0.10;;;0.10;;
9643;SDS011;4860;50.900;4.720;2024-01-25T14:49:56;0.10;;;0.10;;
9643;SDS011;4860;50.900;4.720;2024-01-25T14:52:22;0.10;;;0.10;;
9643;SDS011;4860;50.900;4.720;2024-01-25T14:54:48;0.20;;;0.20;;
9643;SDS011;4860;50.900;4.720;2024-01-25T14:57:14;0.20;;;0.20;;
9643;SDS011;4860;50.900;4.720;2024-01-25T14:59:40;0.10;;;0.10;;
9643;SDS011;4860;50.900;4.720;2024-01-25T15:02:08;0.10;;;0.10;;
9643;SDS011;4860;50.900;4.720;2024-01-25T15:04:34;0.13;;;0.13;;
9643;SDS011;4860;50.900;4.720;2024-01-25T15:07:00;0.10;;;0.10;;
9643;SDS011;4860;50.900;4.720;2024-01-25T15:09:26;0.20;;;0.20;;
9643;SDS011;4860;50.900;4.720;2024-01-25T15:11:52;0.10;;;0.10;;
9643;SDS011;4860;50.900;4.720;2024-01-25T15:14:19;0.20;;;0.20;;
9643;SDS011;4860;50.900;4.720;2024-01-25T15:16:45;0.13;;;0.13;;
9643;SDS011;4860;50.900;4.720;2024-01-25T15:19:13;0.10;;;0.10;;